Airfield :







YOU CAN JOIN US ON...

 
LOGIN :

Register | Disclaimer

   EN    FR    IT 

 









Legend :    VFR   Marginal VFR   IFR   Intensive IFR   Very Intensive IFR
Visi :
Ceiling :
>= 8 km
>= 3000ft
5 to 8 km
1000 to 3000 ft
1500m to 5 km
500 to 1000 ft
800 to 1500m
200 to 500 ft
< 800m
< 200 ft
Symbols :   Thunderstorms  Fog  Heavy snow  Heavy precipitations  Wind > 20 kt






- Airport Elevation : 335 ft
- IATA code : BTV


KBTV - Burlington International

CURRENT METAR :
  • 221254Z 31013G20KT 10SM SCT035 BKN060 OVC075 M02/M08 A2967 RMK AO2 SLP051 T10171083

EXPIRED METARs :
  • 221154Z 30013G20KT 10SM FEW034 BKN060 BKN075 M02/M09 A2967 RMK AO2 SLP051 4/003 60000 70024 T10171089 11011 21022 53010
  • 221054Z 30011KT 10SM SCT030 BKN036 BKN070 M02/M08 A2966 RMK AO2 SLP047 T10171078

TAF KBTV
Valid from the 22 at 12:00 until the 23 at 12:00 UTC


221136Z 2212/2312 31016G22KT P6SM VCSH OVC035
FM221700 31015G23KT P6SM OVC040
FM222000 30015G25KT P6SM BKN060
FM222300 29014KT P6SM BKN070
FM230200 27010KT P6SM SCT070
KZBW FIR / North America



MET'MAP, your aeronautical weather chart ! - Copyright ORBIFLY December 2007 - Disclaimer

ORBIFLY MET'MAP TEAM :

Programming & Development : Alexandra Zaïnal
Concept & original design : Baudouin d'Aumeries
Assistance for programming : Marc-Olivier Méhu
Technical & hardware support : Manuel Goepfert

Contact : metmap@orbifly.com




SOURCES & CREDITS :

   NOAA